sensor_id;sensor_type;location;lat;lon;timestamp;pressure;altitude;pressure_sealevel;temperature;humidity
29815;BME280;16708;50.426;7.664;2023-03-21T00:01:06;989.35;;;8.36;100.00
29815;BME280;16708;50.426;7.664;2023-03-21T00:06:00;989.22;;;8.34;100.00
29815;BME280;16708;50.426;7.664;2023-03-21T00:10:53;989.20;;;8.36;100.00
29815;BME280;16708;50.426;7.664;2023-03-21T00:15:47;989.14;;;8.30;100.00
29815;BME280;16708;50.426;7.664;2023-03-21T00:20:40;989.15;;;8.27;100.00
29815;BME280;16708;50.426;7.664;2023-03-21T00:25:33;989.17;;;8.22;100.00
29815;BME280;16708;50.426;7.664;2023-03-21T00:30:27;989.11;;;8.23;100.00
29815;BME280;16708;50.426;7.664;2023-03-21T00:35:20;989.23;;;8.29;100.00
29815;BME280;16708;50.426;7.664;2023-03-21T00:40:12;989.06;;;8.31;100.00
29815;BME280;16708;50.426;7.664;2023-03-21T00:45:07;989.10;;;8.32;100.00
29815;BME280;16708;50.426;7.664;2023-03-21T00:50:00;988.99;;;8.33;100.00
29815;BME280;16708;50.426;7.664;2023-03-21T00:54:55;988.93;;;8.34;100.00
29815;BME280;16708;50.426;7.664;2023-03-21T00:59:48;988.77;;;8.31;100.00
29815;BME280;16708;50.426;7.664;2023-03-21T01:04:42;988.86;;;8.33;100.00
29815;BME280;16708;50.426;7.664;2023-03-21T01:09:37;988.77;;;8.34;100.00
29815;BME280;16708;50.426;7.664;2023-03-21T01:14:30;988.81;;;8.27;100.00
29815;BME280;16708;50.426;7.664;2023-03-21T01:19:25;988.74;;;8.29;100.00
29815;BME280;16708;50.426;7.664;2023-03-21T01:24:19;988.62;;;8.31;100.00
29815;BME280;16708;50.426;7.664;2023-03-21T01:29:13;988.66;;;8.37;100.00
29815;BME280;16708;50.426;7.664;2023-03-21T01:34:07;988.61;;;8.35;100.00
29815;BME280;16708;50.426;7.664;2023-03-21T01:39:01;988.72;;;8.34;100.00
29815;BME280;16708;50.426;7.664;2023-03-21T01:43:56;988.57;;;8.36;100.00
29815;BME280;16708;50.426;7.664;2023-03-21T01:48:49;988.57;;;8.36;100.00
29815;BME280;16708;50.426;7.664;2023-03-21T01:53:43;988.50;;;8.35;100.00
29815;BME280;16708;50.426;7.664;2023-03-21T01:58:37;988.41;;;8.33;100.00
29815;BME280;16708;50.426;7.664;2023-03-21T02:03:31;988.44;;;8.38;100.00
29815;BME280;16708;50.426;7.664;2023-03-21T02:08:25;988.42;;;8.39;100.00
29815;BME280;16708;50.426;7.664;2023-03-21T02:13:20;988.30;;;8.37;100.00
29815;BME280;16708;50.426;7.664;2023-03-21T02:42:43;987.99;;;8.20;100.00
29815;BME280;16708;50.426;7.664;2023-03-21T02:47:37;988.01;;;8.15;100.00
29815;BME280;16708;50.426;7.664;2023-03-21T02:52:31;987.88;;;8.10;100.00
29815;BME280;16708;50.426;7.664;2023-03-21T02:57:25;987.91;;;8.05;100.00
29815;BME280;16708;50.426;7.664;2023-03-21T03:02:19;987.91;;;7.96;100.00
29815;BME280;16708;50.426;7.664;2023-03-21T03:12:07;987.85;;;7.85;100.00
29815;BME280;16708;50.426;7.664;2023-03-21T03:21:53;987.73;;;7.75;100.00
29815;BME280;16708;50.426;7.664;2023-03-21T03:26:47;987.79;;;7.70;100.00
29815;BME280;16708;50.426;7.664;2023-03-21T03:31:40;987.77;;;7.55;100.00
29815;BME280;16708;50.426;7.664;2023-03-21T03:36:35;987.75;;;7.22;100.00
29815;BME280;16708;50.426;7.664;2023-03-21T03:41:27;987.70;;;6.97;100.00
29815;BME280;16708;50.426;7.664;2023-03-21T03:46:21;987.66;;;6.82;100.00
29815;BME280;16708;50.426;7.664;2023-03-21T03:51:15;987.66;;;6.75;100.00
29815;BME280;16708;50.426;7.664;2023-03-21T03:56:08;987.66;;;6.63;100.00
29815;BME280;16708;50.426;7.664;2023-03-21T04:01:02;987.75;;;6.58;100.00
29815;BME280;16708;50.426;7.664;2023-03-21T04:05:57;987.70;;;6.44;100.00
29815;BME280;16708;50.426;7.664;2023-03-21T04:10:51;987.75;;;6.34;100.00
29815;BME280;16708;50.426;7.664;2023-03-21T04:15:45;987.74;;;6.28;100.00
29815;BME280;16708;50.426;7.664;2023-03-21T04:20:39;987.67;;;6.41;100.00
29815;BME280;16708;50.426;7.664;2023-03-21T04:25:33;987.67;;;6.51;100.00
29815;BME280;16708;50.426;7.664;2023-03-21T04:30:30;987.56;;;6.54;100.00
29815;BME280;16708;50.426;7.664;2023-03-21T04:35:22;987.48;;;6.54;100.00
29815;BME280;16708;50.426;7.664;2023-03-21T04:40:13;987.47;;;6.58;100.00
29815;BME280;16708;50.426;7.664;2023-03-21T04:45:07;987.55;;;6.66;100.00
29815;BME280;16708;50.426;7.664;2023-03-21T04:50:01;987.58;;;6.74;100.00
29815;BME280;16708;50.426;7.664;2023-03-21T04:54:55;987.54;;;6.78;100.00
29815;BME280;16708;50.426;7.664;2023-03-21T04:59:49;987.41;;;6.80;100.00
29815;BME280;16708;50.426;7.664;2023-03-21T05:04:44;987.41;;;6.94;100.00
29815;BME280;16708;50.426;7.664;2023-03-21T05:09:38;987.44;;;7.03;100.00
29815;BME280;16708;50.426;7.664;2023-03-21T05:14:32;987.43;;;7.01;100.00
29815;BME280;16708;50.426;7.664;2023-03-21T05:19:26;987.42;;;6.94;100.00
29815;BME280;16708;50.426;7.664;2023-03-21T05:24:20;987.47;;;6.93;100.00
29815;BME280;16708;50.426;7.664;2023-03-21T05:29:13;987.50;;;6.98;100.00
29815;BME280;16708;50.426;7.664;2023-03-21T05:34:07;987.44;;;7.10;100.00
29815;BME280;16708;50.426;7.664;2023-03-21T05:39:00;987.44;;;7.29;100.00
29815;BME280;16708;50.426;7.664;2023-03-21T05:43:55;987.35;;;7.48;100.00
29815;BME280;16708;50.426;7.664;2023-03-21T05:48:49;987.47;;;7.68;100.00
29815;BME280;16708;50.426;7.664;2023-03-21T05:53:43;987.47;;;8.00;100.00
29815;BME280;16708;50.426;7.664;2023-03-21T05:58:37;987.42;;;8.20;100.00
29815;BME280;16708;50.426;7.664;2023-03-21T06:03:32;987.48;;;8.36;100.00
29815;BME280;16708;50.426;7.664;2023-03-21T06:08:25;987.40;;;8.49;100.00
29815;BME280;16708;50.426;7.664;2023-03-21T06:13:19;987.44;;;8.57;100.00
29815;BME280;16708;50.426;7.664;2023-03-21T06:18:12;987.40;;;8.65;100.00
29815;BME280;16708;50.426;7.664;2023-03-21T06:23:06;987.55;;;8.75;100.00
29815;BME280;16708;50.426;7.664;2023-03-21T06:27:59;987.48;;;8.88;100.00
29815;BME280;16708;50.426;7.664;2023-03-21T06:32:54;987.63;;;8.97;100.00
29815;BME280;16708;50.426;7.664;2023-03-21T06:37:48;987.62;;;9.14;100.00
29815;BME280;16708;50.426;7.664;2023-03-21T06:42:42;987.64;;;9.23;100.00
29815;BME280;16708;50.426;7.664;2023-03-21T06:47:37;987.63;;;9.26;100.00
29815;BME280;16708;50.426;7.664;2023-03-21T06:52:30;987.64;;;9.22;100.00
29815;BME280;16708;50.426;7.664;2023-03-21T06:57:24;987.67;;;9.41;100.00
29815;BME280;16708;50.426;7.664;2023-03-21T07:02:18;987.66;;;9.40;100.00
29815;BME280;16708;50.426;7.664;2023-03-21T07:07:09;987.66;;;9.41;100.00
29815;BME280;16708;50.426;7.664;2023-03-21T07:12:02;987.63;;;9.25;100.00
29815;BME280;16708;50.426;7.664;2023-03-21T07:16:56;987.62;;;9.42;100.00
29815;BME280;16708;50.426;7.664;2023-03-21T07:21:51;987.66;;;9.27;100.00
29815;BME280;16708;50.426;7.664;2023-03-21T07:26:45;987.69;;;9.27;100.00
29815;BME280;16708;50.426;7.664;2023-03-21T07:31:39;987.62;;;9.30;100.00
29815;BME280;16708;50.426;7.664;2023-03-21T07:36:32;987.63;;;9.52;100.00
29815;BME280;16708;50.426;7.664;2023-03-21T07:41:26;987.60;;;9.51;100.00
29815;BME280;16708;50.426;7.664;2023-03-21T07:46:21;987.65;;;9.58;100.00
29815;BME280;16708;50.426;7.664;2023-03-21T07:51:14;987.63;;;9.70;100.00
29815;BME280;16708;50.426;7.664;2023-03-21T07:56:08;987.73;;;9.68;100.00
29815;BME280;16708;50.426;7.664;2023-03-21T08:01:03;987.84;;;9.73;100.00
29815;BME280;16708;50.426;7.664;2023-03-21T08:05:57;987.81;;;9.67;100.00
29815;BME280;16708;50.426;7.664;2023-03-21T08:10:51;987.80;;;9.74;100.00
29815;BME280;16708;50.426;7.664;2023-03-21T08:15:45;987.89;;;9.67;100.00
29815;BME280;16708;50.426;7.664;2023-03-21T08:20:40;987.86;;;9.84;100.00
29815;BME280;16708;50.426;7.664;2023-03-21T08:25:34;987.88;;;9.75;100.00
29815;BME280;16708;50.426;7.664;2023-03-21T08:30:28;987.82;;;9.67;100.00
29815;BME280;16708;50.426;7.664;2023-03-21T08:35:22;987.92;;;9.38;100.00
29815;BME280;16708;50.426;7.664;2023-03-21T08:40:16;987.91;;;9.54;100.00
29815;BME280;16708;50.426;7.664;2023-03-21T08:45:10;987.91;;;9.38;100.00
29815;BME280;16708;50.426;7.664;2023-03-21T08:50:05;987.97;;;9.23;100.00
29815;BME280;16708;50.426;7.664;2023-03-21T08:54:59;987.98;;;9.17;100.00
29815;BME280;16708;50.426;7.664;2023-03-21T08:59:54;988.03;;;9.07;100.00
29815;BME280;16708;50.426;7.664;2023-03-21T09:04:48;988.01;;;9.07;100.00
29815;BME280;16708;50.426;7.664;2023-03-21T09:09:42;987.91;;;9.22;100.00
29815;BME280;16708;50.426;7.664;2023-03-21T09:14:36;988.02;;;9.31;100.00
29815;BME280;16708;50.426;7.664;2023-03-21T09:19:31;988.10;;;9.18;100.00
29815;BME280;16708;50.426;7.664;2023-03-21T09:24:25;987.99;;;9.02;100.00
29815;BME280;16708;50.426;7.664;2023-03-21T09:29:19;988.06;;;9.12;100.00
29815;BME280;16708;50.426;7.664;2023-03-21T09:34:13;988.01;;;9.04;100.00
29815;BME280;16708;50.426;7.664;2023-03-21T09:48:55;988.01;;;9.20;100.00
29815;BME280;16708;50.426;7.664;2023-03-21T09:53:49;988.06;;;9.34;100.00
29815;BME280;16708;50.426;7.664;2023-03-21T09:58:42;988.05;;;9.40;100.00
29815;BME280;16708;50.426;7.664;2023-03-21T10:08:31;988.08;;;9.37;100.00
29815;BME280;16708;50.426;7.664;2023-03-21T10:13:26;988.04;;;9.22;100.00
29815;BME280;16708;50.426;7.664;2023-03-21T10:18:21;988.12;;;9.18;100.00
29815;BME280;16708;50.426;7.664;2023-03-21T10:23:15;988.02;;;9.27;100.00
29815;BME280;16708;50.426;7.664;2023-03-21T10:28:08;987.91;;;8.99;100.00
29815;BME280;16708;50.426;7.664;2023-03-21T10:33:02;987.98;;;9.06;100.00
29815;BME280;16708;50.426;7.664;2023-03-21T10:37:57;987.90;;;8.79;100.00
29815;BME280;16708;50.426;7.664;2023-03-21T10:42:51;987.90;;;8.98;100.00
29815;BME280;16708;50.426;7.664;2023-03-21T10:47:45;987.86;;;9.06;100.00
29815;BME280;16708;50.426;7.664;2023-03-21T10:52:39;987.87;;;8.96;100.00
29815;BME280;16708;50.426;7.664;2023-03-21T10:57:34;987.73;;;9.39;100.00
29815;BME280;16708;50.426;7.664;2023-03-21T11:02:28;987.73;;;9.44;100.00
29815;BME280;16708;50.426;7.664;2023-03-21T11:17:12;987.68;;;9.27;100.00
29815;BME280;16708;50.426;7.664;2023-03-21T11:22:05;987.69;;;9.01;100.00
29815;BME280;16708;50.426;7.664;2023-03-21T11:26:58;987.64;;;9.40;100.00
29815;BME280;16708;50.426;7.664;2023-03-21T11:31:52;987.47;;;9.70;100.00
29815;BME280;16708;50.426;7.664;2023-03-21T11:36:46;987.35;;;9.81;100.00
29815;BME280;16708;50.426;7.664;2023-03-21T11:41:40;987.30;;;9.37;100.00
29815;BME280;16708;50.426;7.664;2023-03-21T11:56:23;987.14;;;9.23;100.00
29815;BME280;16708;50.426;7.664;2023-03-21T12:01:17;987.03;;;9.18;100.00
29815;BME280;16708;50.426;7.664;2023-03-21T12:11:04;987.00;;;9.22;100.00
29815;BME280;16708;50.426;7.664;2023-03-21T12:20:53;986.77;;;9.53;100.00
29815;BME280;16708;50.426;7.664;2023-03-21T12:35:34;986.50;;;9.17;100.00
29815;BME280;16708;50.426;7.664;2023-03-21T12:40:28;986.46;;;9.07;100.00
29815;BME280;16708;50.426;7.664;2023-03-21T12:45:22;986.39;;;9.26;100.00
29815;BME280;16708;50.426;7.664;2023-03-21T12:50:16;986.38;;;9.21;100.00
29815;BME280;16708;50.426;7.664;2023-03-21T12:55:11;986.43;;;9.43;100.00
29815;BME280;16708;50.426;7.664;2023-03-21T13:00:08;986.39;;;9.15;100.00
29815;BME280;16708;50.426;7.664;2023-03-21T13:04:59;986.30;;;9.13;100.00
29815;BME280;16708;50.426;7.664;2023-03-21T13:09:53;986.20;;;9.18;100.00
29815;BME280;16708;50.426;7.664;2023-03-21T13:19:42;985.93;;;9.17;100.00
29815;BME280;16708;50.426;7.664;2023-03-21T13:24:36;986.07;;;9.40;100.00
29815;BME280;16708;50.426;7.664;2023-03-21T13:34:26;985.75;;;9.33;100.00
29815;BME280;16708;50.426;7.664;2023-03-21T13:39:19;985.89;;;9.56;100.00
29815;BME280;16708;50.426;7.664;2023-03-21T13:44:14;985.95;;;9.66;100.00
29815;BME280;16708;50.426;7.664;2023-03-21T13:54:02;985.90;;;9.52;100.00
29815;BME280;16708;50.426;7.664;2023-03-21T14:08:45;985.83;;;9.84;100.00
29815;BME280;16708;50.426;7.664;2023-03-21T14:13:40;985.78;;;9.93;100.00
29815;BME280;16708;50.426;7.664;2023-03-21T14:18:34;985.73;;;10.05;100.00
29815;BME280;16708;50.426;7.664;2023-03-21T14:23:28;985.52;;;9.92;100.00
29815;BME280;16708;50.426;7.664;2023-03-21T14:28:23;985.56;;;9.96;100.00
29815;BME280;16708;50.426;7.664;2023-03-21T14:33:17;985.61;;;10.04;100.00
29815;BME280;16708;50.426;7.664;2023-03-21T14:38:11;985.65;;;9.90;100.00
29815;BME280;16708;50.426;7.664;2023-03-21T14:47:59;985.63;;;9.88;100.00
29815;BME280;16708;50.426;7.664;2023-03-21T14:57:48;985.21;;;9.94;100.00
29815;BME280;16708;50.426;7.664;2023-03-21T15:02:42;985.19;;;9.68;100.00
29815;BME280;16708;50.426;7.664;2023-03-21T15:07:36;985.13;;;9.76;100.00
29815;BME280;16708;50.426;7.664;2023-03-21T15:12:30;985.08;;;9.91;100.00
29815;BME280;16708;50.426;7.664;2023-03-21T15:17:25;985.08;;;9.86;100.00
29815;BME280;16708;50.426;7.664;2023-03-21T15:22:20;985.00;;;9.89;100.00
29815;BME280;16708;50.426;7.664;2023-03-21T15:27:12;984.97;;;9.86;100.00
29815;BME280;16708;50.426;7.664;2023-03-21T15:32:04;984.91;;;9.72;100.00
29815;BME280;16708;50.426;7.664;2023-03-21T15:36:59;985.10;;;9.84;100.00
29815;BME280;16708;50.426;7.664;2023-03-21T15:56:37;984.69;;;10.08;100.00
29815;BME280;16708;50.426;7.664;2023-03-21T16:06:25;984.69;;;10.48;100.00
29815;BME280;16708;50.426;7.664;2023-03-21T16:11:20;984.64;;;10.56;100.00
29815;BME280;16708;50.426;7.664;2023-03-21T16:16:14;984.53;;;10.54;100.00
29815;BME280;16708;50.426;7.664;2023-03-21T16:21:09;984.59;;;10.42;100.00
29815;BME280;16708;50.426;7.664;2023-03-21T16:26:03;984.57;;;10.47;100.00
29815;BME280;16708;50.426;7.664;2023-03-21T16:30:56;984.54;;;10.39;100.00
29815;BME280;16708;50.426;7.664;2023-03-21T16:35:50;984.52;;;10.25;100.00
29815;BME280;16708;50.426;7.664;2023-03-21T16:40:44;984.58;;;10.12;100.00
29815;BME280;16708;50.426;7.664;2023-03-21T16:50:32;984.47;;;10.19;100.00
29815;BME280;16708;50.426;7.664;2023-03-21T16:55:27;984.61;;;10.35;100.00
29815;BME280;16708;50.426;7.664;2023-03-21T17:00:21;984.65;;;10.41;100.00
29815;BME280;16708;50.426;7.664;2023-03-21T17:05:15;984.61;;;10.34;100.00
29815;BME280;16708;50.426;7.664;2023-03-21T17:10:09;984.49;;;11.42;100.00
29815;BME280;16708;50.426;7.664;2023-03-21T17:24:53;984.62;;;11.67;100.00
29815;BME280;16708;50.426;7.664;2023-03-21T17:29:48;984.52;;;10.87;100.00
29815;BME280;16708;50.426;7.664;2023-03-21T17:34:42;984.52;;;10.17;100.00
29815;BME280;16708;50.426;7.664;2023-03-21T17:39:36;984.71;;;9.90;100.00
29815;BME280;16708;50.426;7.664;2023-03-21T17:44:30;984.85;;;9.59;100.00
29815;BME280;16708;50.426;7.664;2023-03-21T17:49:24;984.87;;;9.41;100.00
29815;BME280;16708;50.426;7.664;2023-03-21T17:54:18;984.87;;;9.29;100.00
29815;BME280;16708;50.426;7.664;2023-03-21T17:59:12;984.98;;;9.14;100.00
29815;BME280;16708;50.426;7.664;2023-03-21T18:04:07;985.02;;;8.99;100.00
29815;BME280;16708;50.426;7.664;2023-03-21T18:08:59;985.03;;;9.07;100.00
29815;BME280;16708;50.426;7.664;2023-03-21T18:13:52;985.06;;;9.09;100.00
29815;BME280;16708;50.426;7.664;2023-03-21T18:18:47;985.07;;;9.06;100.00
29815;BME280;16708;50.426;7.664;2023-03-21T18:23:41;985.10;;;9.09;100.00
29815;BME280;16708;50.426;7.664;2023-03-21T18:28:36;985.13;;;9.29;100.00
29815;BME280;16708;50.426;7.664;2023-03-21T18:33:30;985.10;;;9.30;100.00
29815;BME280;16708;50.426;7.664;2023-03-21T18:38:25;985.06;;;9.23;100.00
29815;BME280;16708;50.426;7.664;2023-03-21T18:43:18;985.15;;;9.09;100.00
29815;BME280;16708;50.426;7.664;2023-03-21T18:48:12;985.17;;;9.04;100.00
29815;BME280;16708;50.426;7.664;2023-03-21T18:53:07;985.04;;;9.03;100.00
29815;BME280;16708;50.426;7.664;2023-03-21T18:58:01;985.05;;;9.10;100.00
29815;BME280;16708;50.426;7.664;2023-03-21T19:02:55;985.09;;;9.17;100.00
29815;BME280;16708;50.426;7.664;2023-03-21T19:07:49;985.00;;;9.21;100.00
29815;BME280;16708;50.426;7.664;2023-03-21T19:12:43;984.99;;;9.14;100.00
29815;BME280;16708;50.426;7.664;2023-03-21T19:17:38;985.05;;;9.15;100.00
29815;BME280;16708;50.426;7.664;2023-03-21T19:22:32;985.05;;;9.31;100.00
29815;BME280;16708;50.426;7.664;2023-03-21T19:27:26;985.04;;;9.33;100.00
29815;BME280;16708;50.426;7.664;2023-03-21T19:32:21;985.04;;;9.35;100.00
29815;BME280;16708;50.426;7.664;2023-03-21T19:37:14;984.97;;;9.32;100.00
29815;BME280;16708;50.426;7.664;2023-03-21T19:42:08;985.08;;;9.32;100.00
29815;BME280;16708;50.426;7.664;2023-03-21T19:47:03;985.04;;;9.35;100.00
29815;BME280;16708;50.426;7.664;2023-03-21T19:51:57;984.97;;;9.38;100.00
29815;BME280;16708;50.426;7.664;2023-03-21T19:56:52;984.88;;;9.31;100.00
29815;BME280;16708;50.426;7.664;2023-03-21T20:01:45;984.90;;;9.26;100.00
29815;BME280;16708;50.426;7.664;2023-03-21T20:06:40;984.87;;;9.34;100.00
29815;BME280;16708;50.426;7.664;2023-03-21T20:11:34;984.92;;;9.47;100.00
29815;BME280;16708;50.426;7.664;2023-03-21T20:16:29;984.78;;;9.49;100.00
29815;BME280;16708;50.426;7.664;2023-03-21T20:21:23;984.77;;;9.48;100.00
29815;BME280;16708;50.426;7.664;2023-03-21T20:26:17;984.73;;;9.49;100.00
29815;BME280;16708;50.426;7.664;2023-03-21T20:31:12;984.80;;;9.66;100.00
29815;BME280;16708;50.426;7.664;2023-03-21T20:36:06;984.92;;;9.72;100.00
29815;BME280;16708;50.426;7.664;2023-03-21T20:41:00;984.99;;;9.65;100.00
29815;BME280;16708;50.426;7.664;2023-03-21T20:45:55;984.92;;;9.62;100.00
29815;BME280;16708;50.426;7.664;2023-03-21T20:50:49;984.83;;;9.53;100.00
29815;BME280;16708;50.426;7.664;2023-03-21T20:55:43;984.88;;;9.39;100.00
29815;BME280;16708;50.426;7.664;2023-03-21T21:00:38;984.83;;;9.58;100.00
29815;BME280;16708;50.426;7.664;2023-03-21T21:05:32;984.77;;;9.47;100.00
29815;BME280;16708;50.426;7.664;2023-03-21T21:10:26;984.77;;;9.32;100.00
29815;BME280;16708;50.426;7.664;2023-03-21T21:15:20;984.73;;;9.23;100.00
29815;BME280;16708;50.426;7.664;2023-03-21T21:20:14;984.73;;;9.24;100.00
29815;BME280;16708;50.426;7.664;2023-03-21T21:25:09;984.70;;;9.19;100.00
29815;BME280;16708;50.426;7.664;2023-03-21T21:30:03;984.66;;;9.04;100.00
29815;BME280;16708;50.426;7.664;2023-03-21T21:34:57;984.68;;;8.70;100.00
29815;BME280;16708;50.426;7.664;2023-03-21T21:39:51;984.63;;;8.57;100.00
29815;BME280;16708;50.426;7.664;2023-03-21T21:44:46;984.55;;;8.38;100.00
29815;BME280;16708;50.426;7.664;2023-03-21T21:49:40;984.46;;;8.22;100.00
29815;BME280;16708;50.426;7.664;2023-03-21T21:54:34;984.44;;;8.12;100.00
29815;BME280;16708;50.426;7.664;2023-03-21T21:59:28;984.35;;;7.81;100.00
29815;BME280;16708;50.426;7.664;2023-03-21T22:04:23;984.45;;;7.59;100.00
29815;BME280;16708;50.426;7.664;2023-03-21T22:09:15;984.49;;;7.32;100.00
29815;BME280;16708;50.426;7.664;2023-03-21T22:14:10;984.52;;;7.20;100.00
29815;BME280;16708;50.426;7.664;2023-03-21T22:19:04;984.56;;;7.13;100.00
29815;BME280;16708;50.426;7.664;2023-03-21T22:23:58;984.55;;;7.11;100.00
29815;BME280;16708;50.426;7.664;2023-03-21T22:28:52;984.50;;;7.01;100.00
29815;BME280;16708;50.426;7.664;2023-03-21T22:33:46;984.43;;;7.00;100.00
29815;BME280;16708;50.426;7.664;2023-03-21T22:38:40;984.48;;;6.94;100.00
29815;BME280;16708;50.426;7.664;2023-03-21T22:43:34;984.45;;;7.10;100.00
29815;BME280;16708;50.426;7.664;2023-03-21T22:48:29;984.47;;;7.25;100.00
29815;BME280;16708;50.426;7.664;2023-03-21T22:53:23;984.44;;;7.20;100.00
29815;BME280;16708;50.426;7.664;2023-03-21T22:58:16;984.40;;;7.19;100.00
29815;BME280;16708;50.426;7.664;2023-03-21T23:03:10;984.43;;;7.43;100.00
29815;BME280;16708;50.426;7.664;2023-03-21T23:08:04;984.30;;;7.71;100.00
29815;BME280;16708;50.426;7.664;2023-03-21T23:12:57;984.16;;;8.34;100.00
29815;BME280;16708;50.426;7.664;2023-03-21T23:17:52;984.21;;;8.73;100.00
29815;BME280;16708;50.426;7.664;2023-03-21T23:22:46;984.25;;;8.63;100.00
29815;BME280;16708;50.426;7.664;2023-03-21T23:27:41;984.15;;;8.63;100.00
29815;BME280;16708;50.426;7.664;2023-03-21T23:32:35;984.21;;;8.80;100.00
29815;BME280;16708;50.426;7.664;2023-03-21T23:37:29;984.25;;;8.82;100.00
29815;BME280;16708;50.426;7.664;2023-03-21T23:42:23;984.13;;;9.00;100.00
29815;BME280;16708;50.426;7.664;2023-03-21T23:47:16;984.15;;;8.88;100.00
29815;BME280;16708;50.426;7.664;2023-03-21T23:52:10;984.05;;;8.95;100.00
29815;BME280;16708;50.426;7.664;2023-03-21T23:57:04;984.09;;;8.85;100.00
